BISH weather

Stora-Holt Airport
Stora-Holt, Western Region, Iceland

Public forecast

Using degrees Celsius for public forecast. Weather courtesy of forecast.io.

Closest aviation weather report (METAR) to Stora-Holt Airport

Report is more than 6 hours old.

Closest report is Bildudalur Airport, 42.7 nm (79.0 km) WNW. Retrieved 2019/10/20 13:00 UTC (10 hours ago):

BIBD 201300Z 20007KT 9999 -RA SCT025 OVC030 06/03 Q1010

Closest aviation forecast (TAF) to Stora-Holt Airport

Closest forecast is Reykjavik Airport, 76.3 nm (141.2 km) S. Retrieved 2019/10/20 21:33 UTC (2 hours ago):

TAF BIRK 201931Z 2021/2121 18020G30KT 9999 -RADZ BKN017 OVC025 TX09/2021Z TN03/2121Z TEMPO 2021/2101 3000 RA BR OVC008 BECMG 2101/2103 28012KT -SHRA SCT020 BKN030 BECMG 2110/2112 36015KT BKN035 BECMG 2118/2121 02017G27KT